Time,TemperatureF,DewpointF,PressureIn,WindDirection,WindDirectionDegrees,WindSpeedMPH,WindSpeedGustMPH,Humidity,HourlyPrecipIn,Conditions,Clouds,dailyrainin,SoftwareType,DateUTC
2013-10-28 00:13:00,46.0,33.0,29.95,South,183,0.0,0.0,60,0.00,,,0.00,,2013-10-28 05:13:00,
2013-10-28 00:22:00,46.0,33.0,29.95,South,183,0.0,0.0,61,0.00,,,0.00,,2013-10-28 05:22:00,
2013-10-28 00:53:00,45.0,33.0,29.96,South,183,0.0,0.0,63,0.00,,,0.00,,2013-10-28 05:53:00,
2013-10-28 01:12:00,45.0,32.0,29.96,South,183,0.0,1.0,60,0.00,,,0.00,,2013-10-28 06:12:00,
2013-10-28 01:22:00,46.0,33.0,29.96,SSW,198,0.0,2.0,61,0.00,,,0.00,,2013-10-28 06:22:00,
2013-10-28 01:43:00,46.0,33.0,29.96,SSW,203,1.0,3.0,60,0.00,,,0.00,,2013-10-28 06:43:00,
2013-10-28 01:52:00,46.0,32.0,29.96,SW,225,0.0,4.0,59,0.00,,,0.00,,2013-10-28 06:52:00,
2013-10-28 02:12:00,46.0,33.0,29.96,SSW,196,1.0,4.0,60,0.00,,,0.00,,2013-10-28 07:12:00,
2013-10-28 02:22:00,46.0,33.0,29.96,SSW,210,1.0,4.0,60,0.00,,,0.00,,2013-10-28 07:22:00,
2013-10-28 02:52:00,46.0,32.0,29.97,SW,215,0.0,2.0,59,0.00,,,0.00,,2013-10-28 07:52:00,
2013-10-28 03:12:00,46.0,33.0,29.97,SSW,198,1.0,5.0,60,0.00,,,0.00,,2013-10-28 08:12:00,
2013-10-28 03:22:00,46.0,33.0,29.98,NW,325,0.0,2.0,60,0.00,,,0.00,,2013-10-28 08:22:00,
2013-10-28 03:42:00,43.0,32.0,29.98,NNE,27,0.0,1.0,65,0.00,,,0.00,,2013-10-28 08:42:00,
2013-10-28 03:52:00,42.0,32.0,29.99,NNE,27,0.0,1.0,68,0.00,,,0.00,,2013-10-28 08:52:00,
2013-10-28 04:11:00,42.0,33.0,29.99,NNE,28,0.0,0.0,69,0.00,,,0.00,,2013-10-28 09:11:00,
2013-10-28 04:22:00,40.0,32.0,30.00,NE,56,0.0,1.0,73,0.00,,,0.00,,2013-10-28 09:22:00,
2013-10-28 04:53:00,40.0,32.0,29.99,NE,56,0.0,0.0,74,0.00,,,0.00,,2013-10-28 09:53:00,
2013-10-28 05:23:00,39.0,32.0,30.01,ENE,61,0.0,0.0,77,0.00,,,0.00,,2013-10-28 10:23:00,
2013-10-28 05:43:00,39.0,33.0,30.01,East,100,0.0,1.0,78,0.00,,,0.00,,2013-10-28 10:43:00,
2013-10-28 05:53:00,39.0,32.0,30.01,ESE,107,0.0,1.0,77,0.00,,,0.00,,2013-10-28 10:53:00,
2013-10-28 06:12:00,39.0,33.0,30.01,ESE,107,0.0,0.0,78,0.00,,,0.00,,2013-10-28 11:12:00,
2013-10-28 06:22:00,38.0,32.0,30.02,ESE,112,0.0,1.0,80,0.00,,,0.00,,2013-10-28 11:22:00,
2013-10-28 06:42:00,37.0,32.0,30.02,ESE,112,0.0,1.0,82,0.00,,,0.00,,2013-10-28 11:42:00,
2013-10-28 06:52:00,37.0,32.0,30.02,ESE,113,0.0,1.0,82,0.00,,,0.00,,2013-10-28 11:52:00,
2013-10-28 07:12:00,37.0,32.0,30.02,ESE,113,0.0,1.0,82,0.00,,,0.00,,2013-10-28 12:12:00,
2013-10-28 07:21:00,36.0,32.0,30.03,ESE,113,0.0,0.0,84,0.00,,,0.00,,2013-10-28 12:21:00,
2013-10-28 07:42:00,36.0,32.0,30.04,ESE,116,0.0,1.0,85,0.00,,,0.00,,2013-10-28 12:42:00,
2013-10-28 07:52:00,36.0,32.0,30.03,ESE,118,0.0,1.0,84,0.00,,,0.00,,2013-10-28 12:52:00,
2013-10-28 08:11:00,37.0,32.0,30.04,SE,125,0.0,2.0,82,0.00,,,0.00,,2013-10-28 13:11:00,
2013-10-28 08:22:00,36.0,31.0,30.04,SE,124,0.0,2.0,83,0.00,,,0.00,,2013-10-28 13:22:00,
2013-10-28 08:42:00,35.0,31.0,30.05,SE,125,1.0,2.0,86,0.00,,,0.00,,2013-10-28 13:42:00,
2013-10-28 08:52:00,37.0,33.0,30.06,SE,126,1.0,2.0,86,0.00,,,0.00,,2013-10-28 13:52:00,
2013-10-28 09:11:00,39.0,34.0,30.06,ESE,119,2.0,3.0,83,0.00,,,0.00,,2013-10-28 14:11:00,
2013-10-28 09:22:00,41.0,35.0,30.06,East,98,2.0,5.0,79,0.00,,,0.00,,2013-10-28 14:22:00,
2013-10-28 09:42:00,43.0,36.0,30.07,ENE,74,2.0,6.0,77,0.00,,,0.00,,2013-10-28 14:42:00,
2013-10-28 09:52:00,46.0,38.0,30.08,NNE,33,3.0,5.0,73,0.00,,,0.00,,2013-10-28 14:52:00,
2013-10-28 10:11:00,47.0,38.0,30.09,ENE,67,4.0,7.0,70,0.00,,,0.00,,2013-10-28 15:11:00,
2013-10-28 10:22:00,47.0,38.0,30.09,East,96,5.0,8.0,71,0.00,,,0.00,,2013-10-28 15:22:00,
2013-10-28 10:43:00,48.0,39.0,30.09,East,80,5.0,8.0,71,0.00,,,0.00,,2013-10-28 15:43:00,
2013-10-28 10:53:00,49.0,39.0,30.09,ENE,69,3.0,7.0,69,0.00,,,0.00,,2013-10-28 15:53:00,
2013-10-28 11:23:00,52.0,42.0,30.11,SE,140,2.0,5.0,68,0.00,,,0.00,,2013-10-28 16:23:00,
2013-10-28 11:43:00,53.0,42.0,30.11,SE,127,2.0,4.0,67,0.00,,,0.00,,2013-10-28 16:43:00,
2013-10-28 11:53:00,53.0,42.0,30.12,East,87,3.0,7.0,67,0.00,,,0.00,,2013-10-28 16:53:00,
2013-10-28 12:12:00,54.0,43.0,30.12,East,80,3.0,7.0,67,0.00,,,0.00,,2013-10-28 17:12:00,
2013-10-28 12:22:00,55.0,45.0,30.11,ESE,113,1.0,4.0,68,0.00,,,0.00,,2013-10-28 17:22:00,
2013-10-28 12:52:00,58.0,48.0,30.11,ESE,117,2.0,5.0,69,0.00,,,0.00,,2013-10-28 17:52:00,
2013-10-28 13:12:00,59.0,48.0,30.11,ESE,119,3.0,7.0,68,0.00,,,0.00,,2013-10-28 18:12:00,
2013-10-28 13:52:00,61.0,50.0,30.09,East,94,6.0,9.0,66,0.00,,,0.00,,2013-10-28 18:52:00,
2013-10-28 14:22:00,62.0,49.0,30.06,East,98,5.0,11.0,62,0.00,,,0.00,,2013-10-28 19:22:00,
2013-10-28 14:42:00,63.0,50.0,30.06,SE,134,4.0,10.0,62,0.00,,,0.00,,2013-10-28 19:42:00,
2013-10-28 14:52:00,64.0,50.0,30.06,SE,130,5.0,11.0,60,0.00,,,0.00,,2013-10-28 19:52:00,
2013-10-28 15:11:00,64.0,50.0,30.06,SSE,165,5.0,10.0,61,0.00,,,0.00,,2013-10-28 20:11:00,
2013-10-28 15:21:00,64.0,51.0,30.06,SSE,159,5.0,11.0,63,0.00,,,0.00,,2013-10-28 20:21:00,
2013-10-28 15:52:00,64.0,52.0,30.06,SE,126,3.0,9.0,64,0.00,,,0.00,,2013-10-28 20:52:00,
2013-10-28 16:21:00,62.0,52.0,30.06,SSE,147,1.0,6.0,69,0.00,,,0.00,,2013-10-28 21:21:00,
2013-10-28 16:43:00,63.0,53.0,30.06,SSE,155,3.0,8.0,70,0.00,,,0.00,,2013-10-28 21:43:00,
2013-10-28 16:54:00,63.0,53.0,30.05,SSE,154,3.0,8.0,70,0.00,,,0.00,,2013-10-28 21:54:00,
2013-10-28 17:23:00,63.0,54.0,30.06,SE,142,2.0,7.0,72,0.00,,,0.00,,2013-10-28 22:23:00,
2013-10-28 17:53:00,62.0,53.0,30.05,ESE,117,4.0,9.0,73,0.00,,,0.00,,2013-10-28 22:53:00,
2013-10-28 18:22:00,61.0,53.0,30.06,East,100,5.0,9.0,75,0.00,,,0.00,,2013-10-28 23:22:00,
2013-10-28 18:42:00,60.0,52.0,30.06,SE,133,4.0,9.0,76,0.00,,,0.00,,2013-10-28 23:42:00,
2013-10-28 18:52:00,59.0,52.0,30.07,ESE,113,5.0,10.0,78,0.00,,,0.00,,2013-10-28 23:52:00,
2013-10-28 19:22:00,57.0,51.0,30.08,ESE,107,4.0,10.0,81,0.00,,,0.00,,2013-10-29 00:22:00,
2013-10-28 19:42:00,56.0,51.0,30.09,ESE,122,5.0,12.0,83,0.00,,,0.00,,2013-10-29 00:42:00,
2013-10-28 19:52:00,55.0,51.0,30.09,SSE,151,5.0,10.0,85,0.00,,,0.00,,2013-10-29 00:52:00,
2013-10-28 20:11:00,55.0,51.0,30.10,SSE,154,2.0,8.0,85,0.00,,,0.00,,2013-10-29 01:11:00,
2013-10-28 20:21:00,55.0,51.0,30.09,ESE,115,2.0,8.0,85,0.00,,,0.00,,2013-10-29 01:21:00,
2013-10-28 20:42:00,55.0,51.0,30.09,SSE,149,5.0,9.0,85,0.00,,,0.00,,2013-10-29 01:42:00,
2013-10-28 20:53:00,54.0,50.0,30.09,SE,146,5.0,9.0,85,0.00,,,0.00,,2013-10-29 01:53:00,
2013-10-28 21:11:00,54.0,50.0,30.09,ESE,118,3.0,9.0,86,0.00,,,0.00,,2013-10-29 02:11:00,
2013-10-28 21:21:00,54.0,50.0,30.09,ESE,114,4.0,8.0,86,0.00,,,0.00,,2013-10-29 02:21:00,
2013-10-28 21:44:00,53.0,49.0,30.08,SE,127,5.0,9.0,86,0.00,,,0.00,,2013-10-29 02:44:00,
2013-10-28 21:54:00,53.0,49.0,30.08,SE,134,4.0,11.0,86,0.00,,,0.00,,2013-10-29 02:54:00,
2013-10-28 22:14:00,53.0,49.0,30.07,East,90,4.0,11.0,86,0.00,,,0.00,,2013-10-29 03:14:00,
2013-10-28 22:27:00,53.0,49.0,30.08,SSE,149,4.0,8.0,86,0.00,,,0.00,,2013-10-29 03:27:00,
2013-10-28 22:40:00,-999.0,-99.9,30.08,East,94,4.0,9.0,88,0.00,,,0.00,,2013-10-29 03:40:00,
2013-10-28 22:47:00,53.0,50.0,30.08,East,94,4.0,9.0,88,0.00,,,0.00,,2013-10-29 03:47:00,
2013-10-28 22:55:00,53.0,50.0,30.10,NW,315,3.0,5.0,90,0.00,,,0.00,,2013-10-29 03:55:00,
2013-10-28 23:14:00,52.0,49.0,30.10,East,98,5.0,8.0,90,0.01,,,0.01,,2013-10-29 04:14:00,
2013-10-28 23:24:00,52.0,49.0,30.12,NNW,336,2.0,5.0,91,0.02,,,0.02,,2013-10-29 04:24:00,
2013-10-28 23:43:00,52.0,50.0,30.10,ESE,103,2.0,10.0,92,0.05,,,0.05,,2013-10-29 04:43:00,
2013-10-28 23:57:00,52.0,50.0,30.10,ESE,115,5.0,13.0,93,0.06,,,0.06,,2013-10-29 04:57:00,